Latest Coastal Weather Observations for Lord Howe Island

IDN60701

Issued at 7:10 pm EDT Monday 26 January 2015 (issued every 10 minutes, with the page automatically refreshed every 10 minutes)

About coastal observations | Map of coastal stations | Coastal observations for NSW | Marine services | Other Formats
Station Details ID: 200839 Name: LORD HOWE ISLAND AERO Lat: -31.54 Lon: 159.08 Height: 5.0 m
Data from the previous 72 hours. | See also: Recent months at Lord Howe Island
Date/Time
EDT
Temp

°C
Wind Pressure Rain
since 9am
mm
Weather Cloud Vis
km
Sea
Height
m
Swell
Dir
 
Speed
knots
Gust
knots
hPa Trend Height
m
Period
s
Dir
26/07:00pm 24.8 S 11 21 1007.1 - 0.0 - Cloudy 10 - - - -
26/06:30pm 25.2 S 10 17 1007.0 - 0.0 - Cloudy 10 - - - -
26/06:00pm 25.6 S 12 27 1006.6 - 0.0 - Cloudy 10 - - - -
26/05:30pm 25.7 SSW 14 25 1006.4 - 0.0 - Partly cloudy 10 - - - -
26/05:00pm 26.1 S 11 27 1006.3 - 0.0 - Partly cloudy 10 - - - -
26/04:30pm 26.4 S 13 29 1006.4 - 0.0 - Partly cloudy 10 - - - -
26/04:00pm 26.7 SE 7 19 1006.5 - 0.0 - Partly cloudy 10 - - - -
26/03:30pm 26.8 SSW 12 24 1006.7 - 0.0 - Partly cloudy 10 - - - -
26/03:00pm 26.6 SSW 12 18 1006.8 R 0.0 Showers Mostly cloudy 20 - - - -
26/02:30pm 27.2 SSW 10 21 1006.8 - 0.0 - Mostly clear 10 - - - -
26/02:00pm 26.8 S 11 28 1006.8 - 0.0 - Mostly clear 10 - - - -
26/01:30pm 25.5 SSW 13 22 1006.9 - 0.0 Showers Mostly clear 10 - - - -
26/01:00pm 25.1 SSW 13 22 1007.1 - 0.0 Showers Mostly clear 7 - - - -
26/12:30pm 26.6 SW 10 17 1007.1 - 0.0 - Mostly clear 10 - - - -
26/12:00pm 26.4 SW 11 15 1006.9 F 0.0 Fine Partly cloudy 30 - - - -
26/11:30am 25.6 SW 9 15 1007.0 - 0.0 - Mostly clear 10 - - - -
26/11:00am 25.9 SW 10 18 1007.2 - 0.0 - Mostly clear 10 - - - -
26/10:30am 25.7 SW 10 15 1007.1 - 0.0 - Mostly clear 10 - - - -
26/10:00am 24.7 SW 12 19 1007.1 - 0.0 - Mostly clear 10 - - - -
26/09:50am 25.2 SW 11 16 1007.0 - 0.0 - Mostly clear 10 - - - -
26/09:26am 25.3 SW 11 15 1007.0 - 0.0 Showers Mostly clear 10 - - - -
26/09:00am 24.8 SW 11 16 1007.1 R 0.2 Showers Mostly cloudy 20 - - - -
26/08:30am 25.4 SW 10 14 1007.1 - 0.2 - Mostly clear 10 - - - -
26/08:00am 25.3 SW 10 14 1006.9 - 0.2 - Mostly clear 10 - - - -
26/07:30am 25.3 SW 9 13 1006.7 - 0.2 - Mostly clear 10 - - - -
26/07:00am 25.2 SW 10 12 1006.4 - 0.2 - Mostly clear 10 - - - -
26/06:30am 24.7 WSW 12 16 1006.2 - 0.2 - Mostly clear 10 - - - -
26/06:10am 24.7 SW 10 14 1006.0 - 0.2 - Cloudy 10 - - - -
26/06:00am 24.6 SW 10 15 1005.9 R 0.2 Fine Mostly cloudy 30 - - - -
26/05:30am 24.4 SW 7 11 1005.4 - 0.2 - Partly cloudy 10 - - - -
26/05:00am 24.1 SW 7 10 1005.2 - 0.2 - Partly cloudy 10 - - - -
26/04:56am 24.0 SW 7 11 1005.3 - 0.2 - Partly cloudy 10 - - - -
26/04:45am 24.1 SW 7 11 1005.2 - 0.2 - Partly cloudy 10 - - - -
26/04:30am 23.8 SSW 7 10 1005.2 - 0.2 - Partly cloudy 10 - - - -
26/04:22am 23.7 SSW 8 12 1005.2 - 0.2 - Partly cloudy 10 - - - -
26/04:08am 23.6 SSW 9 15 1005.3 - 0.2 - Partly cloudy 6 - - - -
26/04:00am 24.3 SW 7 11 1005.2 - 0.0 - Partly cloudy 10 - - - -
26/03:30am 24.6 SSW 8 12 1005.1 - 0.0 - Partly cloudy 10 - - - -
26/03:21am 24.3 SSW 8 12 1005.1 - 0.0 - Partly cloudy 10 - - - -
26/03:00am 24.4 SW 9 14 1004.9 - 0.0 - Cloudy 10 - - - -
26/02:30am 24.2 SW 12 16 1005.0 - 0.0 - Partly cloudy 10 - - - -
26/02:00am 24.9 SW 8 12 1004.9 - 0.0 - Partly cloudy 10 - - - -
26/01:30am 24.8 SW 9 13 1005.0 - 0.0 - Partly cloudy 10 - - - -
26/01:00am 24.8 SW 9 13 1005.1 - 0.0 - Partly cloudy 10 - - - -
26/12:57am 24.8 WSW 9 13 1005.2 - 0.0 - Partly cloudy 10 - - - -
26/12:30am 24.9 SW 8 11 1005.2 - 0.0 - Partly cloudy 10 - - - -
26/12:12am 24.8 SW 8 11 1005.1 - 0.0 - Partly cloudy 10 - - - -
26/12:00am 24.7 WSW 7 10 1005.2 - 0.0 - Cloudy 10 - - - -
 
Date/Time
EDT
Temp

°C
Wind Pressure Rain
since 9am
mm
Weather Cloud Vis
km
Sea
Height
m
Swell
Dir
 
Speed
knots
Gust
knots
hPa Trend Height
m
Period
s
Dir
25/11:30pm 24.8 SW 7 10 1005.4 - 0.0 - Partly cloudy 10 - - - -
25/11:00pm 24.8 SW 7 11 1005.5 - 0.0 - - 10 - - - -
25/10:31pm 24.9 SW 8 11 1005.5 - 0.0 - Partly cloudy 10 - - - -
25/10:30pm 24.9 SW 8 11 1005.5 - 0.0 - Partly cloudy 10 - - - -
25/10:00pm 25.0 SW 7 10 1005.5 - 0.0 - Partly cloudy 10 - - - -
25/09:30pm 24.9 SW 7 10 1005.5 - 0.0 - Partly cloudy 10 - - - -
25/09:08pm 25.1 SW 8 11 1005.4 - 0.0 - Partly cloudy 10 - - - -
25/09:05pm 25.1 SW 8 11 1005.4 - 0.0 - Partly cloudy 10 - - - -
25/09:00pm 25.0 SW 8 11 1005.2 - 0.0 - Cloudy 10 - - - -
25/08:31pm 25.1 SW 7 11 1005.0 - 0.0 - Partly cloudy 10 - - - -
25/08:30pm 25.1 SW 7 11 1005.0 - 0.0 - Partly cloudy 10 - - - -
25/08:00pm 25.1 SW 8 11 1004.7 - 0.0 - Partly cloudy 10 - - - -
25/07:47pm 25.1 SW 8 11 1004.6 - 0.0 - Partly cloudy 10 - - - -
25/07:30pm 25.2 SW 7 10 1004.4 - 0.0 - Partly cloudy 10 - - - -
25/07:00pm 25.4 SW 8 11 1004.3 - 0.0 - Partly cloudy 10 - - - -
25/06:42pm 25.8 SW 9 12 1004.1 - 0.0 - Partly cloudy 10 - - - -
25/06:30pm 25.9 SW 9 11 1003.9 - 0.0 - Partly cloudy 10 - - - -
25/06:00pm 25.9 SW 10 13 1003.5 - 0.0 - Cloudy 10 - - - -
25/05:30pm 25.9 SW 10 12 1003.3 - 0.0 - Partly cloudy 10 - - - -
25/05:28pm 25.9 SW 9 12 1003.3 - 0.0 - Partly cloudy 10 - - - -
25/05:00pm 25.8 SW 9 12 1003.3 - 0.0 - Partly cloudy 10 - - - -
25/04:30pm 25.1 SW 10 13 1003.4 - 0.0 - Partly cloudy 10 - - - -
25/04:21pm 25.2 SW 9 13 1003.4 - 0.0 - Partly cloudy 10 - - - -
25/04:03pm 25.5 W 13 17 1003.5 - 0.0 - Partly cloudy 5 - - - -
25/04:00pm 25.5 W 13 17 1003.5 - 0.0 - Cloudy 10 - - - -
25/03:30pm 26.4 WSW 8 9 1003.5 - 0.0 - Partly cloudy 10 - - - -
25/03:10pm 26.7 WSW 9 10 1003.6 - 0.0 - Partly cloudy 10 - - - -
25/03:00pm 26.5 W 9 10 1003.6 F 0.0 Fine Partly cloudy 25 - - - -
25/02:37pm 26.1 W 8 12 1003.8 - 0.0 - Partly cloudy 7 - - - -
25/02:30pm 25.7 W 10 12 1003.8 - 0.0 - Partly cloudy 10 - - - -
25/02:14pm 26.8 W 9 11 1003.7 - 0.0 - Partly cloudy 10 - - - -
25/02:00pm 26.5 W 7 9 1003.7 - 0.0 - Partly cloudy 10 - - - -
25/01:58pm 26.1 W 7 8 1003.7 - 0.0 - Partly cloudy 10 - - - -
25/01:30pm 26.6 W 7 9 1003.9 - 0.0 - Partly cloudy 10 - - - -
25/01:27pm 26.9 W 7 8 1003.9 - 0.0 - Partly cloudy 10 - - - -
25/01:00pm 25.9 N 6 10 1004.2 - 0.0 - Cloudy 10 - - - -
25/12:38pm 26.7 W 5 7 1004.4 - 0.0 - Partly cloudy 10 - - - -
25/12:32pm 26.5 NNW 6 8 1004.5 - 0.0 - Partly cloudy 10 - - - -
25/12:30pm 26.6 N 6 10 1004.5 - 0.0 - Partly cloudy 10 - - - -
25/12:13pm 26.4 NE 9 11 1004.6 - 0.0 - Partly cloudy 10 - - - -
25/12:00pm 26.8 NNE 9 11 1004.7 - 0.0 - Cloudy 10 - - - -
25/11:30am 26.9 NNE 9 11 1004.9 - 0.0 - Partly cloudy 10 - - - -
25/11:00am 26.5 NE 8 10 1005.0 - 0.0 - Partly cloudy 10 - - - -
25/10:30am 26.4 NNE 9 11 1005.0 - 0.0 - Partly cloudy 10 - - - -
25/10:00am 26.5 NE 8 11 1005.1 - 0.0 - Partly cloudy 10 - - - -
25/09:30am 26.6 NE 8 11 1005.1 - 0.0 - - 10 - - - -
25/09:19am 26.2 NE 8 11 1005.1 - 0.0 - Partly cloudy 10 - - - -
25/09:00am 26.2 NE 8 9 1005.0 R 6.2 Fine Partly cloudy 20 - - - -
25/08:41am 25.9 NNE 8 10 1005.1 - 6.2 - Partly cloudy 10 - - - -
25/08:30am 26.0 NNE 9 11 1005.2 - 6.2 - - 10 - - - -
25/08:00am 25.8 NNE 8 10 1005.2 - 6.2 - - 10 - - - -
25/07:30am 25.4 NE 7 11 1004.9 - 6.2 - - 10 - - - -
25/07:00am 24.9 N 5 8 1004.8 - 6.2 - - 10 - - - -
25/06:30am 24.2 NNE 5 7 1004.6 - 6.2 - - 10 - - - -
25/06:00am 24.0 N 6 9 1004.3 F 6.2 Fine Mostly clear 18 - - - -
25/05:30am 24.2 NE 7 13 1004.1 - 6.2 - Partly cloudy 10 - - - -
25/05:00am 24.2 NNE 6 11 1004.2 - 6.2 - - 10 - - - -
25/04:30am 24.2 NNE 5 8 1004.3 - 6.2 - Partly cloudy 10 - - - -
25/04:00am 24.1 NNE 6 9 1004.2 - 6.2 - Partly cloudy 10 - - - -
25/03:50am 24.1 NNE 7 11 1004.3 - 6.2 - Partly cloudy 10 - - - -
25/03:30am 24.3 N 8 13 1004.5 - 6.2 - Partly cloudy 10 - - - -
25/03:00am 24.2 N 9 15 1004.5 - 6.2 - Cloudy 10 - - - -
25/02:43am 24.3 N 8 19 1004.6 - 6.2 - Partly cloudy 10 - - - -
25/02:30am 24.3 N 8 13 1004.8 - 6.2 - Partly cloudy 10 - - - -
25/02:00am 24.2 N 7 12 1004.8 - 6.2 - Partly cloudy 10 - - - -
25/01:30am 24.2 N 7 15 1004.8 - 6.2 - Partly cloudy 10 - - - -
25/01:21am 24.2 NNE 8 13 1004.9 - 6.2 - Partly cloudy 10 - - - -
25/01:00am 24.4 N 8 17 1005.1 - 6.2 - Partly cloudy 10 - - - -
25/12:30am 24.4 N 8 12 1005.2 - 6.2 - Partly cloudy 10 - - - -
25/12:00am 24.4 N 7 13 1005.0 - 6.2 - Cloudy 10 - - - -
 
Date/Time
EDT
Temp

°C
Wind Pressure Rain
since 9am
mm
Weather Cloud Vis
km
Sea
Height
m
Swell
Dir
 
Speed
knots
Gust
knots
hPa Trend Height
m
Period
s
Dir
24/11:30pm 24.4 N 6 12 1005.0 - 6.2 - Partly cloudy 10 - - - -
24/11:07pm 24.2 N 6 11 1005.0 - 6.2 - Partly cloudy 10 - - - -
24/11:00pm 24.2 NNE 5 11 1005.1 - 6.2 - Partly cloudy 10 - - - -
24/10:33pm 24.2 N 5 10 1005.0 - 6.2 - Partly cloudy 10 - - - -
24/10:30pm 24.2 NNE 5 10 1005.0 - 6.2 - Partly cloudy 10 - - - -
24/10:08pm 24.3 N 4 7 1005.2 - 6.2 - Partly cloudy 10 - - - -
24/10:00pm 24.3 N 3 5 1005.2 - 6.2 - Partly cloudy 10 - - - -
24/09:48pm 24.2 NNE 5 9 1005.2 - 6.2 - Partly cloudy 10 - - - -
24/09:30pm 24.2 NNE 4 6 1005.0 - 6.2 - Partly cloudy 10 - - - -
24/09:00pm 24.2 NNE 4 7 1004.8 - 6.2 - Cloudy 10 - - - -
24/08:37pm 24.1 NE 5 8 1004.5 - 6.2 - Partly cloudy 8 - - - -
24/08:30pm 24.1 NE 4 7 1004.5 - 6.2 - Partly cloudy 8 - - - -
24/08:07pm 24.1 N 5 8 1004.4 - 6.0 - Partly cloudy 6 - - - -
24/08:00pm 24.3 NE 5 7 1004.5 - 6.0 - Partly cloudy 7 - - - -
24/07:57pm 24.3 NE 5 8 1004.5 - 6.0 - Partly cloudy 8 - - - -
24/07:30pm 24.1 N 5 10 1004.4 - 6.0 - Partly cloudy 6 - - - -
24/07:00pm 24.3 NNE 7 10 1004.1 - 6.0 - Partly cloudy 6 - - - -
24/06:49pm 24.4 NNE 9 11 1004.2 - 6.0 - Partly cloudy 6 - - - -
24/06:38pm 24.5 NE 9 10 1004.2 - 6.0 - Partly cloudy 7 - - - -
24/06:30pm 24.5 ENE 9 10 1004.2 - 6.0 - Partly cloudy 7 - - - -
24/06:00pm 24.8 NE 9 10 1004.1 - 5.8 - Cloudy 5 - - - -
24/05:49pm 24.9 ENE 8 10 1004.1 - 5.8 - Partly cloudy 6 - - - -
24/05:48pm 24.8 ENE 8 10 1004.1 - 5.8 - Partly cloudy 7 - - - -
24/05:30pm 24.6 ENE 9 12 1004.1 - 5.8 - Partly cloudy 9 - - - -
24/05:00pm 24.5 ENE 8 10 1004.0 - 5.8 - Partly cloudy 3 - - - -
24/04:30pm 24.5 ENE 8 11 1004.4 - 5.6 - Cloudy 4 - - - -
24/04:00pm 24.9 NE 8 9 1004.7 - 0.4 - Partly cloudy 6 - - - -
24/03:56pm 24.9 ENE 8 9 1004.8 - 0.4 - Partly cloudy 6 - - - -
24/03:44pm 24.8 ENE 10 11 1004.8 - 0.4 - Partly cloudy 8 - - - -
24/03:30pm 24.6 ENE 11 13 1004.7 - 0.4 - Partly cloudy 6 - - - -
24/03:25pm 24.7 E 12 13 1004.6 - 0.4 - Partly cloudy 6 - - - -
24/03:19pm 24.8 E 12 14 1004.6 - 0.4 - Partly cloudy 7 - - - -
24/03:00pm 25.0 E 11 13 1004.4 F 0.4 Distant precip. Cloudy 5 - - - -
24/02:43pm 25.0 E 10 12 1004.7 - 0.4 - Partly cloudy 5 - - - -
24/02:40pm 25.0 E 10 12 1004.7 - 0.4 - Partly cloudy 5 - - - -
24/02:30pm 24.9 E 11 13 1004.8 - 0.4 - Partly cloudy 5 - - - -
24/02:00pm 24.6 E 12 15 1004.9 - 0.4 - Cloudy 3 - - - -
24/01:30pm 24.9 E 10 13 1005.1 - 0.2 - Partly cloudy 4 - - - -
24/01:20pm 24.8 E 11 15 1005.1 - 0.2 - Partly cloudy 5 - - - -
24/01:04pm 25.0 E 11 14 1005.4 - 0.2 - Partly cloudy 8 - - - -
24/01:00pm 24.8 E 11 14 1005.4 - 0.2 - Partly cloudy 8 - - - -
24/12:30pm 24.8 E 14 16 1005.6 - 0.2 - Cloudy 4 - - - -
24/12:00pm 24.8 E 15 19 1006.0 - 0.2 - Cloudy 1 - - - -
24/11:30am 24.4 E 15 19 1006.2 - 0.2 - Partly cloudy 1 - - - -
24/11:00am 24.8 E 16 19 1006.2 - 0.2 - Partly cloudy 3 - - - -
24/10:30am 24.4 E 17 21 1006.2 - 0.2 - Cloudy 2 - - - -
24/10:00am 24.3 E 19 22 1006.3 - 0.0 - Cloudy 5 - - - -
24/09:30am 24.1 E 17 21 1006.6 - 0.0 - Partly cloudy 3 - - - -
24/09:00am 24.0 E 18 23 1006.4 F 2.2 Drizzle Cloudy 8 - - - -
24/08:30am 23.9 E 19 23 1006.6 - 2.2 - Partly cloudy 3 - - - -
24/08:00am 23.8 E 19 23 1006.7 - 2.2 - Cloudy 5 - - - -
24/07:30am 23.9 E 19 22 1006.6 - 2.2 - Cloudy 6 - - - -
24/07:26am 24.0 E 19 22 1006.6 - 2.2 - Cloudy 6 - - - -
24/07:24am 23.9 E 18 22 1006.6 - 2.2 - Cloudy 7 - - - -
24/07:00am 23.8 E 18 24 1006.7 - 2.2 - Partly cloudy 4 - - - -
24/06:30am 23.7 E 20 24 1006.6 - 2.2 - Partly cloudy 7 - - - -
24/06:07am 23.5 E 17 22 1006.4 - 2.2 - Partly cloudy 6 - - - -
24/06:00am 23.5 E 18 - 1006.4 F - Recent precip. Cloudy 8 - - - -
24/05:58am 23.5 E 18 23 1006.4 - 2.2 - Partly cloudy 10 - - - -
24/05:30am 23.3 E 17 22 1006.2 - 2.0 - Partly cloudy 3 - - - -
24/05:00am 23.3 E 18 25 1006.1 - 1.8 - Partly cloudy 3 - - - -
24/04:30am 23.7 E 18 24 1006.0 - 1.8 - Partly cloudy 6 - - - -
24/04:00am 23.7 E 17 21 1005.9 - 1.8 - Partly cloudy 8 - - - -
24/03:30am 23.8 E 17 21 1005.9 - 1.8 - Partly cloudy 8 - - - -
24/03:00am 23.7 E 17 21 1006.0 - 1.8 - Cloudy 8 - - - -
24/02:34am 23.6 E 12 18 1006.5 - 1.8 - Partly cloudy 7 - - - -
24/02:30am 23.6 E 12 18 1006.5 - 1.8 - Partly cloudy 7 - - - -
24/02:00am 23.4 E 15 18 1006.9 - 1.8 - Partly cloudy 4 - - - -
24/01:41am 23.7 E 13 17 1007.2 - 1.8 - Partly cloudy 6 - - - -
24/01:30am 23.6 E 13 18 1007.1 - 1.8 - Partly cloudy 8 - - - -
24/01:00am 23.5 E 15 19 1007.5 - 1.8 - Partly cloudy 8 - - - -
24/12:35am 23.5 E 14 19 1007.7 - 1.8 - Partly cloudy 9 - - - -
24/12:30am 23.4 E 13 19 1007.7 - 1.8 - Partly cloudy 8 - - - -
24/12:09am 23.4 E 13 18 1007.8 - 1.8 - Partly cloudy 6 - - - -
24/12:00am 23.5 E 15 21 1008.0 - 1.8 - Cloudy 9 - - - -
 
Date/Time
EDT
Temp

°C
Wind Pressure Rain
since 9am
mm
Weather Cloud Vis
km
Sea
Height
m
Swell
Dir
 
Speed
knots
Gust
knots
hPa Trend Height
m
Period
s
Dir
23/11:30pm 23.3 ESE 9 14 1008.5 - 1.8 - Partly cloudy 9 - - - -
23/11:00pm 23.2 E 10 15 1008.8 - 1.8 - Partly cloudy 9 - - - -
23/10:50pm 23.1 ESE 9 15 1008.9 - 1.8 - Partly cloudy 10 - - - -
23/10:47pm 23.1 ESE 9 15 1008.9 - 1.8 - Partly cloudy 10 - - - -
23/10:46pm 23.0 ESE 9 15 1008.9 - 1.8 - Partly cloudy 10 - - - -
23/10:30pm 22.9 ESE 9 15 1009.0 - 1.8 - Partly cloudy 6 - - - -
23/10:27pm 23.0 E 10 15 1009.0 - 1.8 - Partly cloudy 6 - - - -
23/10:21pm 23.0 E 12 18 1009.0 - 1.8 - Partly cloudy 7 - - - -
23/10:00pm 22.9 E 10 15 1009.1 - 1.8 - Partly cloudy 8 - - - -
23/09:31pm 23.1 E 11 21 1009.3 - 1.0 - Partly cloudy 6 - - - -
23/09:30pm 23.1 E 10 17 1009.2 - 1.0 - Partly cloudy 8 - - - -
23/09:08pm 23.0 E 11 17 1009.3 - 1.0 - Partly cloudy 10 - - - -
23/09:00pm 22.9 E 13 17 1009.1 - 1.0 - Cloudy 9 - - - -
23/08:30pm 22.7 E 13 20 1009.4 - 0.4 - Partly cloudy 4 - - - -
23/08:21pm 23.3 E 13 19 1009.0 - 0.4 - Partly cloudy 6 - - - -
23/08:00pm 23.3 E 13 19 1008.8 - 0.4 - Partly cloudy 10 - - - -
23/07:57pm 23.3 E 13 19 1008.7 - 0.4 - Partly cloudy 10 - - - -
23/07:49pm 23.1 E 11 19 1008.6 - 0.4 - Partly cloudy 10 - - - -
23/07:46pm 22.9 E 11 21 1008.5 - 0.4 - Partly cloudy 10 - - - -
23/07:30pm 22.9 E 16 24 1008.3 - 0.4 - Partly cloudy 6 - - - -
23/07:29pm 22.9 E 16 24 1008.4 - 0.4 - Partly cloudy 6 - - - -
23/07:09pm 23.3 E 16 24 1008.1 - 0.4 - Partly cloudy 10 - - - -
23/07:03pm 23.3 E 16 26 1008.1 - 0.4 - Partly cloudy 10 - - - -

Other Formats:

Comma delimited format used in spreadsheet applications
http://www.bom.gov.au/fwo/IDN60701/IDN60701.94995.axf

JavaScript Object Notation format (JSON) in row-major order
http://www.bom.gov.au/fwo/IDN60701/IDN60701.94995.json